createdAt,value
2023-01-30T00:00:58.316Z,101488.44
2023-01-30T00:03:25.273Z,101485.59
2023-01-30T00:05:51.996Z,101489.25
2023-01-30T00:08:18.793Z,101501.22
2023-01-30T00:10:45.797Z,101503.81
2023-01-30T00:13:14.398Z,101518.84
2023-01-30T00:15:41.381Z,101503.94
2023-01-30T00:18:07.961Z,101500.50
2023-01-30T00:20:34.431Z,101488.09
2023-01-30T00:23:01.360Z,101484.66
2023-01-30T00:25:29.196Z,101495.06
2023-01-30T00:27:56.611Z,101486.19
2023-01-30T00:30:23.080Z,101482.06
2023-01-30T00:32:54.771Z,101478.53
2023-01-30T00:35:21.353Z,101469.41
2023-01-30T00:37:47.682Z,101467.84
2023-01-30T00:40:14.180Z,101462.66
2023-01-30T00:42:59.151Z,101471.28
2023-01-30T00:45:44.038Z,101447.59
2023-01-30T00:48:10.571Z,101443.72
2023-01-30T00:50:42.770Z,101432.81
2023-01-30T00:53:13.245Z,101427.38
2023-01-30T00:55:39.924Z,101425.00
2023-01-30T00:58:06.750Z,101424.41
2023-01-30T01:00:33.513Z,101423.44
2023-01-30T01:02:59.944Z,101423.09
2023-01-30T01:05:26.628Z,101414.34
2023-01-30T01:07:53.154Z,101410.06
2023-01-30T01:10:19.865Z,101413.50
2023-01-30T01:12:47.146Z,101426.88
2023-01-30T01:15:14.312Z,101412.31
2023-01-30T01:17:41.933Z,101409.72
2023-01-30T01:20:09.530Z,101408.88
2023-01-30T01:22:36.086Z,101393.25
2023-01-30T01:25:02.432Z,101399.28
2023-01-30T01:27:29.609Z,101388.75
2023-01-30T01:29:55.966Z,101379.16
2023-01-30T01:32:23.177Z,101383.28
2023-01-30T01:34:49.694Z,101390.88
2023-01-30T01:37:16.021Z,101394.19
2023-01-30T01:40:01.178Z,101382.09
2023-01-30T01:42:32.830Z,101374.97
2023-01-30T01:45:14.710Z,101378.88
2023-01-30T01:47:58.982Z,101369.75
2023-01-30T01:50:30.882Z,101376.03
2023-01-30T01:53:00.757Z,101370.56
2023-01-30T01:55:28.919Z,101379.31
2023-01-30T01:58:05.029Z,101391.53
2023-01-30T02:00:32.214Z,101371.47
2023-01-30T02:03:01.818Z,101363.66
2023-01-30T02:05:32.629Z,101353.69
2023-01-30T02:08:22.336Z,101350.50
2023-01-30T02:11:10.473Z,101345.41
2023-01-30T02:13:37.050Z,101350.50
2023-01-30T02:16:05.161Z,101341.75
2023-01-30T02:18:33.759Z,101325.03
2023-01-30T02:21:54.597Z,101324.91
2023-01-30T02:24:45.140Z,101320.66
2023-01-30T02:27:27.779Z,101310.34
2023-01-30T02:30:29.088Z,101301.91
2023-01-30T02:33:10.443Z,101300.69
2023-01-30T02:35:59.584Z,101297.00
2023-01-30T02:38:38.018Z,101295.47
2023-01-30T02:41:12.725Z,101290.13
2023-01-30T02:44:05.641Z,101282.88
2023-01-30T02:46:37.757Z,101272.88
2023-01-30T02:49:20.794Z,101277.03
2023-01-30T02:51:51.213Z,101284.16
2023-01-30T02:54:17.748Z,101268.13
2023-01-30T02:56:53.752Z,101263.34
2023-01-30T02:59:35.246Z,101272.03
2023-01-30T03:02:05.379Z,101262.13
2023-01-30T03:04:44.076Z,101260.47
2023-01-30T03:07:32.761Z,101271.34
2023-01-30T03:10:06.562Z,101263.66
2023-01-30T03:12:49.088Z,101260.13
2023-01-30T03:15:41.916Z,101254.22
2023-01-30T03:18:09.504Z,101261.78
2023-01-30T03:20:40.333Z,101255.16
2023-01-30T03:23:07.817Z,101260.69
2023-01-30T03:25:37.866Z,101253.84
2023-01-30T03:28:06.024Z,101255.09
2023-01-30T03:30:32.665Z,101247.41
2023-01-30T03:32:59.056Z,101236.38
2023-01-30T03:35:25.582Z,101232.84
2023-01-30T03:37:52.025Z,101242.56
2023-01-30T03:40:18.693Z,101239.13
2023-01-30T03:42:45.152Z,101238.50
2023-01-30T03:45:11.786Z,101221.31
2023-01-30T03:47:38.256Z,101221.31
2023-01-30T03:50:05.122Z,101201.13
2023-01-30T03:52:31.515Z,101199.47
2023-01-30T03:54:57.875Z,101196.88
2023-01-30T03:57:24.223Z,101205.91
2023-01-30T03:59:50.566Z,101192.03
2023-01-30T04:02:21.140Z,101185.19
2023-01-30T04:04:47.589Z,101188.22
2023-01-30T04:07:13.996Z,101191.41
2023-01-30T04:09:40.363Z,101177.53
2023-01-30T04:12:07.395Z,101172.31
2023-01-30T04:14:33.886Z,101191.25
2023-01-30T04:17:00.299Z,101172.31
2023-01-30T04:19:26.799Z,101165.47
2023-01-30T04:21:53.220Z,101172.84
2023-01-30T04:24:19.675Z,101184.25
2023-01-30T04:26:46.179Z,101168.22
2023-01-30T04:29:12.636Z,101168.91
2023-01-30T04:31:39.108Z,101162.84
2023-01-30T04:34:05.650Z,101164.63
2023-01-30T04:36:32.076Z,101167.66
2023-01-30T04:38:58.449Z,101152.69
2023-01-30T04:41:24.903Z,101165.75
2023-01-30T04:43:51.257Z,101163.97
2023-01-30T04:46:17.612Z,101164.81
2023-01-30T04:48:44.201Z,101168.50
2023-01-30T04:51:10.614Z,101166.84
2023-01-30T04:53:37.084Z,101163.53
2023-01-30T04:56:03.698Z,101173.16
2023-01-30T04:58:30.058Z,101170.41
2023-01-30T05:00:56.478Z,101152.28
2023-01-30T05:03:22.970Z,101151.47
2023-01-30T05:05:49.291Z,101154.34
2023-01-30T05:08:16.101Z,101153.00
2023-01-30T05:10:42.506Z,101159.31
2023-01-30T05:13:08.956Z,101165.88
2023-01-30T05:15:35.351Z,101151.31
2023-01-30T05:18:02.279Z,101148.97
2023-01-30T05:20:28.659Z,101147.06
2023-01-30T05:22:55.025Z,101153.78
2023-01-30T05:25:21.588Z,101153.41
2023-01-30T05:27:48.044Z,101157.50
2023-01-30T05:30:14.540Z,101150.50
2023-01-30T05:32:40.941Z,101148.47
2023-01-30T05:35:07.828Z,101151.19
2023-01-30T05:37:34.198Z,101148.56
2023-01-30T05:40:00.727Z,101139.13
2023-01-30T05:42:27.083Z,101127.59
2023-01-30T05:44:53.601Z,101122.66
2023-01-30T05:47:19.969Z,101121.69
2023-01-30T05:49:46.292Z,101122.66
2023-01-30T05:52:12.670Z,101118.38
2023-01-30T05:54:39.195Z,101125.13
2023-01-30T05:57:05.601Z,101128.56
2023-01-30T05:59:31.925Z,101129.09
2023-01-30T06:01:58.283Z,101128.41
2023-01-30T06:04:24.705Z,101130.03
2023-01-30T06:06:51.084Z,101125.41
2023-01-30T06:09:17.621Z,101136.66
2023-01-30T06:11:43.999Z,101138.03
2023-01-30T06:14:10.403Z,101141.59
2023-01-30T06:16:36.814Z,101135.28
2023-01-30T06:19:03.186Z,101143.53
2023-01-30T06:21:29.556Z,101146.25
2023-01-30T06:23:55.914Z,101151.38
2023-01-30T06:26:22.295Z,101157.97
2023-01-30T06:28:49.695Z,101152.06
2023-01-30T06:31:16.777Z,101144.91
2023-01-30T06:33:43.927Z,101153.28
2023-01-30T06:36:10.808Z,101153.97
2023-01-30T06:38:37.164Z,101160.84
2023-01-30T06:41:03.585Z,101145.72
2023-01-30T06:43:29.953Z,101148.22
2023-01-30T06:45:58.909Z,101164.13
2023-01-30T06:48:25.270Z,101160.16
2023-01-30T06:50:51.714Z,101163.88
2023-01-30T06:53:18.058Z,101173.22
2023-01-30T06:55:44.513Z,101176.63
2023-01-30T06:58:12.937Z,101174.00
2023-01-30T07:00:42.235Z,101176.63
2023-01-30T07:03:13.628Z,101183.38
2023-01-30T07:05:40.558Z,101181.31
2023-01-30T07:08:07.205Z,101165.75
2023-01-30T07:10:35.386Z,101175.13
2023-01-30T07:13:02.397Z,101172.34
2023-01-30T07:15:28.920Z,101166.03
2023-01-30T07:17:55.285Z,101165.78
2023-01-30T07:20:21.660Z,101165.78
2023-01-30T07:22:52.391Z,101155.03
2023-01-30T07:25:20.408Z,101159.97
2023-01-30T07:27:54.085Z,101158.88
2023-01-30T07:30:20.767Z,101163.28
2023-01-30T07:32:54.811Z,101168.50
2023-01-30T07:35:22.962Z,101159.56
2023-01-30T07:37:50.607Z,101163.00
2023-01-30T07:40:18.176Z,101162.59
2023-01-30T07:42:45.562Z,101173.97
2023-01-30T07:45:12.047Z,101178.38
2023-01-30T07:47:38.396Z,101196.25
2023-01-30T07:50:05.651Z,101190.75
2023-01-30T07:52:32.612Z,101197.63
2023-01-30T07:55:01.396Z,101195.84
2023-01-30T07:57:27.977Z,101195.84
2023-01-30T07:59:54.342Z,101194.59
2023-01-30T08:02:20.752Z,101191.03
2023-01-30T08:04:47.167Z,101196.50
2023-01-30T08:07:13.641Z,101197.34
2023-01-30T08:09:40.084Z,101189.25
2023-01-30T08:12:06.620Z,101190.72
2023-01-30T08:14:32.967Z,101188.38
2023-01-30T08:16:59.394Z,101196.94
2023-01-30T08:19:25.872Z,101201.59
2023-01-30T08:21:52.224Z,101203.09
2023-01-30T08:24:18.665Z,101206.66
2023-01-30T08:26:45.120Z,101216.44
2023-01-30T08:29:11.535Z,101221.34
2023-01-30T08:31:37.873Z,101222.34
2023-01-30T08:34:04.363Z,101207.19
2023-01-30T08:36:30.698Z,101216.38
2023-01-30T08:38:57.153Z,101213.94
2023-01-30T08:41:23.507Z,101218.44
2023-01-30T08:43:49.922Z,101222.41
2023-01-30T08:46:17.377Z,101220.34
2023-01-30T08:48:49.932Z,101224.91
2023-01-30T08:51:16.698Z,101230.56
2023-01-30T08:53:43.085Z,101237.69
2023-01-30T08:56:09.532Z,101244.81
2023-01-30T08:58:35.895Z,101246.59
2023-01-30T09:01:06.951Z,101258.56
2023-01-30T09:03:33.464Z,101264.34
2023-01-30T09:05:59.883Z,101266.84
2023-01-30T09:08:26.279Z,101248.94
2023-01-30T09:10:52.605Z,101267.38
2023-01-30T09:13:20.174Z,101242.06
2023-01-30T09:15:46.598Z,101236.66
2023-01-30T09:18:13.013Z,101231.31
2023-01-30T09:20:39.387Z,101226.59
2023-01-30T09:23:05.769Z,101231.25
2023-01-30T09:25:32.149Z,101238.81
2023-01-30T09:27:58.539Z,101240.09
2023-01-30T09:30:24.952Z,101249.56
2023-01-30T09:32:51.480Z,101256.31
2023-01-30T09:35:17.992Z,101252.16
2023-01-30T09:37:48.854Z,101255.09
2023-01-30T09:40:18.901Z,101261.69
2023-01-30T09:43:00.143Z,101262.97
2023-01-30T09:45:32.674Z,101269.78
2023-01-30T09:48:10.992Z,101270.59
2023-01-30T09:50:45.898Z,101265.88
2023-01-30T09:53:33.910Z,101269.56
2023-01-30T09:56:01.643Z,101271.94
2023-01-30T09:58:47.617Z,101263.19
2023-01-30T10:01:25.529Z,101267.88
2023-01-30T10:04:15.716Z,101277.44
2023-01-30T10:06:52.013Z,101274.78
2023-01-30T10:09:35.271Z,101287.06
2023-01-30T10:12:13.820Z,101289.09
2023-01-30T10:14:49.507Z,101292.00
2023-01-30T10:17:45.343Z,101288.47
2023-01-30T10:20:16.601Z,101291.47
2023-01-30T10:23:07.609Z,101302.06
2023-01-30T10:25:34.103Z,101295.63
2023-01-30T10:28:40.381Z,101291.50
2023-01-30T10:31:14.768Z,101294.44
2023-01-30T10:33:53.311Z,101299.09
2023-01-30T10:36:30.452Z,101294.84
2023-01-30T10:39:00.939Z,101302.16
2023-01-30T10:41:32.360Z,101302.03
2023-01-30T10:44:04.128Z,101297.59
2023-01-30T10:46:46.708Z,101300.38
2023-01-30T10:49:51.715Z,101300.63
2023-01-30T10:52:43.644Z,101301.47
2023-01-30T10:55:39.658Z,101299.53
2023-01-30T10:58:11.702Z,101302.56
2023-01-30T11:00:43.594Z,101299.78
2023-01-30T11:03:45.204Z,101293.88
2023-01-30T11:06:23.729Z,101306.81
2023-01-30T11:08:51.213Z,101300.47
2023-01-30T11:11:35.707Z,101305.56
2023-01-30T11:14:07.392Z,101304.75
2023-01-30T11:16:43.607Z,101308.31
2023-01-30T11:19:20.719Z,101301.69
2023-01-30T11:21:59.884Z,101292.31
2023-01-30T11:24:41.834Z,101297.19
2023-01-30T11:27:31.366Z,101298.84
2023-01-30T11:30:28.471Z,101302.97
2023-01-30T11:33:10.784Z,101316.88
2023-01-30T11:35:59.014Z,101310.97
2023-01-30T11:38:30.963Z,101319.66
2023-01-30T11:41:09.406Z,101319.25
2023-01-30T11:43:42.194Z,101312.50
2023-01-30T11:46:12.486Z,101306.16
2023-01-30T11:49:44.373Z,101312.91
2023-01-30T11:51:54.387Z,101317.31
2023-01-30T11:54:34.117Z,101310.28
2023-01-30T11:57:04.978Z,101304.66
2023-01-30T11:59:39.038Z,101299.13
2023-01-30T12:02:14.562Z,101294.19
2023-01-30T12:04:45.158Z,101298.47
2023-01-30T12:07:22.963Z,101301.59
2023-01-30T12:09:50.331Z,101311.09
2023-01-30T12:12:45.304Z,101307.94
2023-01-30T12:15:21.814Z,101318.41
2023-01-30T12:18:25.653Z,101334.53
2023-01-30T12:21:04.979Z,101318.22
2023-01-30T12:23:48.864Z,101303.72
2023-01-30T12:26:26.728Z,101319.97
2023-01-30T12:29:21.011Z,101305.34
2023-01-30T12:31:52.530Z,101309.16
2023-01-30T12:34:19.119Z,101305.81
2023-01-30T12:36:54.696Z,101298.53
2023-01-30T12:39:31.809Z,101310.34
2023-01-30T12:42:43.298Z,101302.84
2023-01-30T12:45:24.391Z,101310.56
2023-01-30T12:48:15.571Z,101297.97
2023-01-30T12:50:51.212Z,101306.91
2023-01-30T12:53:26.155Z,101303.75
2023-01-30T12:56:11.213Z,101301.56
2023-01-30T12:59:16.422Z,101318.91
2023-01-30T13:02:13.959Z,101314.00
2023-01-30T13:05:04.574Z,101324.81
2023-01-30T13:07:38.695Z,101324.59
2023-01-30T13:10:28.281Z,101332.03
2023-01-30T13:13:11.525Z,101328.34
2023-01-30T13:16:10.499Z,101328.56
2023-01-30T13:18:49.954Z,101327.69
2023-01-30T13:21:41.367Z,101327.09
2023-01-30T13:24:27.320Z,101351.66
2023-01-30T13:26:58.579Z,101356.38
2023-01-30T13:29:35.474Z,101366.19
2023-01-30T13:32:05.687Z,101351.56
2023-01-30T13:34:40.447Z,101359.66
2023-01-30T13:37:11.527Z,101365.03
2023-01-30T13:39:53.436Z,101364.75
2023-01-30T13:42:28.653Z,101368.94
2023-01-30T13:44:57.285Z,101370.88
2023-01-30T13:47:52.275Z,101385.03
2023-01-30T13:50:28.392Z,101367.66
2023-01-30T13:53:19.677Z,101377.81
2023-01-30T13:55:58.067Z,101383.28
2023-01-30T13:58:50.055Z,101389.63
2023-01-30T14:01:16.616Z,101385.00
2023-01-30T14:03:44.010Z,101393.38
2023-01-30T14:06:30.171Z,101401.91
2023-01-30T14:08:59.402Z,101404.38
2023-01-30T14:11:31.905Z,101398.03
2023-01-30T14:14:24.412Z,101403.34
2023-01-30T14:16:54.024Z,101407.34
2023-01-30T14:19:29.441Z,101412.88
2023-01-30T14:22:02.909Z,101417.22
2023-01-30T14:24:31.561Z,101414.88
2023-01-30T14:26:57.871Z,101423.00
2023-01-30T14:29:42.614Z,101426.81
2023-01-30T14:32:13.036Z,101427.84
2023-01-30T14:34:44.289Z,101436.53
2023-01-30T14:37:43.879Z,101427.09
2023-01-30T14:40:31.020Z,101431.00
2023-01-30T14:43:12.687Z,101441.63
2023-01-30T14:45:47.146Z,101445.72
2023-01-30T14:48:49.924Z,101441.63
2023-01-30T14:51:28.910Z,101453.38
2023-01-30T14:54:16.588Z,101447.47
2023-01-30T14:56:46.052Z,101452.19
2023-01-30T14:59:15.601Z,101467.91
2023-01-30T15:02:06.341Z,101475.88
2023-01-30T15:04:44.831Z,101471.91
2023-01-30T15:07:39.486Z,101482.69
2023-01-30T15:10:19.687Z,101487.25
2023-01-30T15:13:07.547Z,101496.75
2023-01-30T15:15:55.889Z,101493.28
2023-01-30T15:18:51.717Z,101497.44
2023-01-30T15:21:46.391Z,101505.72
2023-01-30T15:24:43.153Z,101517.03
2023-01-30T15:27:38.428Z,101520.22
2023-01-30T15:30:18.982Z,101525.19
2023-01-30T15:32:45.632Z,101531.97
2023-01-30T15:35:18.723Z,101541.91
2023-01-30T15:37:57.682Z,101546.88
2023-01-30T15:40:27.073Z,101550.75
2023-01-30T15:43:13.595Z,101547.44
2023-01-30T15:45:40.086Z,101557.91
2023-01-30T15:48:25.331Z,101551.28
2023-01-30T15:50:54.471Z,101549.63
2023-01-30T15:53:34.353Z,101562.16
2023-01-30T15:56:03.297Z,101561.63
2023-01-30T15:58:30.929Z,101571.66
2023-01-30T16:00:59.913Z,101579.53
2023-01-30T16:03:31.111Z,101584.75
2023-01-30T16:05:58.418Z,101583.38
2023-01-30T16:08:33.786Z,101589.59
2023-01-30T16:11:00.926Z,101600.06
2023-01-30T16:13:28.857Z,101600.06
2023-01-30T16:16:03.843Z,101595.09
2023-01-30T16:18:38.985Z,101606.25
2023-01-30T16:21:09.643Z,101613.00
2023-01-30T16:23:38.428Z,101612.31
2023-01-30T16:26:09.561Z,101627.34
2023-01-30T16:28:35.978Z,101623.75
2023-01-30T16:31:06.303Z,101630.91
2023-01-30T16:33:36.555Z,101631.59
2023-01-30T16:36:23.663Z,101640.97
2023-01-30T16:38:51.453Z,101642.75
2023-01-30T16:41:39.949Z,101644.84
2023-01-30T16:44:21.336Z,101652.38
2023-01-30T16:47:11.015Z,101653.47
2023-01-30T16:49:37.484Z,101662.47
2023-01-30T16:52:27.788Z,101663.66
2023-01-30T16:54:59.759Z,101665.97
2023-01-30T16:57:34.991Z,101660.34
2023-01-30T17:00:02.907Z,101673.44
2023-01-30T17:02:42.323Z,101677.13
2023-01-30T17:05:19.153Z,101674.22
2023-01-30T17:07:46.295Z,101676.72
2023-01-30T17:10:27.673Z,101681.13
2023-01-30T17:12:55.407Z,101684.44
2023-01-30T17:15:22.010Z,101686.22
2023-01-30T17:17:48.571Z,101699.44
2023-01-30T17:20:19.024Z,101702.22
2023-01-30T17:22:47.913Z,101704.94
2023-01-30T17:25:32.695Z,101708.00
2023-01-30T17:27:59.281Z,101720.38
2023-01-30T17:30:25.691Z,101707.53
2023-01-30T17:32:52.076Z,101712.09
2023-01-30T17:35:19.114Z,101710.84
2023-01-30T17:37:53.155Z,101718.44
2023-01-30T17:40:33.710Z,101729.28
2023-01-30T17:43:00.265Z,101733.81
2023-01-30T17:45:27.093Z,101739.06
2023-01-30T17:47:53.633Z,101742.63
2023-01-30T17:50:20.367Z,101747.28
2023-01-30T17:52:46.937Z,101746.72
2023-01-30T17:55:13.941Z,101753.16
2023-01-30T17:57:43.094Z,101757.13
2023-01-30T18:00:15.658Z,101757.13
2023-01-30T18:02:42.054Z,101767.34
2023-01-30T18:05:10.096Z,101759.41
2023-01-30T18:07:37.150Z,101778.50
2023-01-30T18:10:04.245Z,101784.16
2023-01-30T18:12:30.605Z,101786.75
2023-01-30T18:14:57.531Z,101793.06
2023-01-30T18:17:28.362Z,101795.00
2023-01-30T18:19:55.438Z,101799.63
2023-01-30T18:22:22.440Z,101803.44
2023-01-30T18:24:48.908Z,101794.28
2023-01-30T18:27:15.267Z,101802.63
2023-01-30T18:29:41.676Z,101801.34
2023-01-30T18:32:08.069Z,101798.75
2023-01-30T18:34:35.260Z,101798.59
2023-01-30T18:37:01.624Z,101804.44
2023-01-30T18:39:27.973Z,101801.81
2023-01-30T18:41:54.391Z,101805.94
2023-01-30T18:44:20.847Z,101807.03
2023-01-30T18:46:49.960Z,101803.44
2023-01-30T18:49:16.359Z,101803.81
2023-01-30T18:51:42.691Z,101811.09
2023-01-30T18:54:09.087Z,101807.78
2023-01-30T18:56:36.600Z,101804.72
2023-01-30T18:59:05.230Z,101809.94
2023-01-30T19:01:38.607Z,101814.69
2023-01-30T19:04:07.951Z,101820.91
2023-01-30T19:06:36.440Z,101822.69
2023-01-30T19:09:02.899Z,101824.44
2023-01-30T19:11:48.302Z,101832.06
2023-01-30T19:14:14.687Z,101833.25
2023-01-30T19:16:41.359Z,101839.31
2023-01-30T19:19:08.851Z,101836.13
2023-01-30T19:21:36.040Z,101832.09
2023-01-30T19:24:04.028Z,101834.38
2023-01-30T19:26:30.702Z,101834.16
2023-01-30T19:28:57.163Z,101840.47
2023-01-30T19:31:23.710Z,101845.09
2023-01-30T19:33:55.982Z,101852.34
2023-01-30T19:36:24.640Z,101853.41
2023-01-30T19:38:51.935Z,101852.13
2023-01-30T19:41:22.351Z,101851.91
2023-01-30T19:43:49.099Z,101863.88
2023-01-30T19:46:15.558Z,101866.59
2023-01-30T19:48:43.679Z,101878.13
2023-01-30T19:51:15.755Z,101882.75
2023-01-30T19:53:45.265Z,101884.78
2023-01-30T19:56:13.632Z,101882.28
2023-01-30T19:58:41.111Z,101890.38
2023-01-30T20:01:12.266Z,101893.44
2023-01-30T20:03:40.044Z,101904.84
2023-01-30T20:06:15.922Z,101903.16
2023-01-30T20:08:44.125Z,101908.38
2023-01-30T20:11:13.985Z,101904.84
2023-01-30T20:13:42.734Z,101907.22
2023-01-30T20:16:11.882Z,101911.81
2023-01-30T20:18:40.005Z,101921.91
2023-01-30T20:21:12.622Z,101927.97
2023-01-30T20:23:41.547Z,101936.38
2023-01-30T20:26:10.251Z,101935.06
2023-01-30T20:28:38.243Z,101935.19
2023-01-30T20:31:17.145Z,101924.28
2023-01-30T20:33:43.711Z,101935.41
2023-01-30T20:36:13.430Z,101935.41
2023-01-30T20:38:42.568Z,101941.69
2023-01-30T20:41:11.478Z,101942.53
2023-01-30T20:43:40.094Z,101943.50
2023-01-30T20:46:12.055Z,101946.66
2023-01-30T20:48:39.456Z,101949.28
2023-01-30T20:51:11.784Z,101954.72
2023-01-30T20:53:39.624Z,101951.38
2023-01-30T20:56:07.038Z,101953.53
2023-01-30T20:58:33.413Z,101951.97
2023-01-30T21:01:08.719Z,101953.41
2023-01-30T21:03:35.142Z,101955.63
2023-01-30T21:06:02.554Z,101953.50
2023-01-30T21:08:29.389Z,101951.59
2023-01-30T21:11:04.572Z,101955.97
2023-01-30T21:13:30.866Z,101957.16
2023-01-30T21:16:10.993Z,101957.03
2023-01-30T21:18:39.535Z,101961.91
2023-01-30T21:21:14.589Z,101960.59
2023-01-30T21:23:42.048Z,101966.16
2023-01-30T21:26:10.508Z,101971.47
2023-01-30T21:28:37.905Z,101972.81
2023-01-30T21:31:12.585Z,101979.91
2023-01-30T21:33:39.085Z,101978.22
2023-01-30T21:36:06.184Z,101984.06
2023-01-30T21:38:51.392Z,101979.19
2023-01-30T21:41:40.181Z,101977.84
2023-01-30T21:44:06.866Z,101976.53
2023-01-30T21:46:39.255Z,101975.47
2023-01-30T21:49:05.982Z,101972.03
2023-01-30T21:51:32.898Z,101974.44
2023-01-30T21:54:03.456Z,101981.75
2023-01-30T21:56:31.275Z,101981.28
2023-01-30T21:59:02.298Z,101981.28
2023-01-30T22:01:29.014Z,101984.34
2023-01-30T22:03:58.462Z,101991.34
2023-01-30T22:06:24.855Z,101991.56
2023-01-30T22:08:55.501Z,101994.06
2023-01-30T22:11:22.165Z,101992.63
2023-01-30T22:13:48.850Z,101992.63
2023-01-30T22:16:18.221Z,101992.38
2023-01-30T22:18:47.272Z,102001.25
2023-01-30T22:21:16.485Z,102008.66
2023-01-30T22:23:45.646Z,102002.47
2023-01-30T22:26:14.327Z,102009.75
2023-01-30T22:28:40.861Z,102003.38
2023-01-30T22:31:08.603Z,102002.41
2023-01-30T22:33:36.356Z,102008.34
2023-01-30T22:36:05.839Z,102010.63
2023-01-30T22:38:33.248Z,102007.94
2023-01-30T22:41:01.517Z,102011.13
2023-01-30T22:43:29.612Z,102006.63
2023-01-30T22:46:07.019Z,102003.91
2023-01-30T22:48:34.617Z,102018.13
2023-01-30T22:51:08.755Z,102022.88
2023-01-30T22:53:40.596Z,102016.00
2023-01-30T22:56:09.306Z,102018.75
2023-01-30T22:58:36.166Z,102011.63
2023-01-30T23:01:17.818Z,102019.34
2023-01-30T23:03:45.578Z,102014.97
2023-01-30T23:06:14.788Z,102024.56
2023-01-30T23:08:44.018Z,102027.03
2023-01-30T23:11:19.702Z,102018.84
2023-01-30T23:13:48.965Z,102022.16
2023-01-30T23:16:17.404Z,102014.34
2023-01-30T23:18:55.995Z,102016.00
2023-01-30T23:21:27.230Z,102001.06
2023-01-30T23:23:59.373Z,102008.91
2023-01-30T23:26:27.978Z,102019.34
2023-01-30T23:28:54.472Z,102022.66
2023-01-30T23:31:26.261Z,102020.78
2023-01-30T23:33:54.621Z,102017.94
2023-01-30T23:36:21.899Z,102019.72
2023-01-30T23:38:50.083Z,102025.78
2023-01-30T23:41:19.270Z,102019.50
2023-01-30T23:43:47.051Z,102020.56
2023-01-30T23:46:13.486Z,102015.09
2023-01-30T23:48:40.649Z,102022.91
2023-01-30T23:51:07.639Z,102028.13
2023-01-30T23:53:35.148Z,102019.72
2023-01-30T23:56:02.484Z,102020.66
2023-01-30T23:58:29.133Z,102021.28
